sensor_id;sensor_type;location;lat;lon;timestamp;P1;durP1;ratioP1;P2;durP2;ratioP2
8312;SDS011;4194;43.408;24.626;2023-05-16T00:02:15;10.20;;;5.57;;
8312;SDS011;4194;43.408;24.626;2023-05-16T00:04:42;12.23;;;5.70;;
8312;SDS011;4194;43.408;24.626;2023-05-16T00:07:08;10.57;;;5.10;;
8312;SDS011;4194;43.408;24.626;2023-05-16T00:09:33;11.00;;;4.47;;
8312;SDS011;4194;43.408;24.626;2023-05-16T00:12:00;10.03;;;5.40;;
8312;SDS011;4194;43.408;24.626;2023-05-16T00:14:25;8.17;;;5.03;;
8312;SDS011;4194;43.408;24.626;2023-05-16T00:16:52;8.17;;;5.10;;
8312;SDS011;4194;43.408;24.626;2023-05-16T00:19:18;8.33;;;5.63;;
8312;SDS011;4194;43.408;24.626;2023-05-16T00:21:44;10.73;;;5.47;;
8312;SDS011;4194;43.408;24.626;2023-05-16T00:24:10;5.50;;;4.93;;
8312;SDS011;4194;43.408;24.626;2023-05-16T00:26:37;7.33;;;4.97;;
8312;SDS011;4194;43.408;24.626;2023-05-16T00:29:03;9.83;;;5.67;;
8312;SDS011;4194;43.408;24.626;2023-05-16T00:31:28;10.70;;;5.20;;
8312;SDS011;4194;43.408;24.626;2023-05-16T00:33:54;10.53;;;5.20;;
8312;SDS011;4194;43.408;24.626;2023-05-16T00:36:20;8.57;;;5.37;;
8312;SDS011;4194;43.408;24.626;2023-05-16T00:38:46;9.97;;;5.50;;
8312;SDS011;4194;43.408;24.626;2023-05-16T00:41:11;9.43;;;5.40;;
8312;SDS011;4194;43.408;24.626;2023-05-16T00:43:38;7.20;;;5.27;;
8312;SDS011;4194;43.408;24.626;2023-05-16T00:46:04;9.17;;;4.80;;
8312;SDS011;4194;43.408;24.626;2023-05-16T00:48:30;7.70;;;5.50;;
8312;SDS011;4194;43.408;24.626;2023-05-16T00:50:56;7.50;;;5.23;;
8312;SDS011;4194;43.408;24.626;2023-05-16T00:53:22;8.70;;;4.90;;
8312;SDS011;4194;43.408;24.626;2023-05-16T00:55:49;7.67;;;4.80;;
8312;SDS011;4194;43.408;24.626;2023-05-16T00:58:16;9.47;;;5.33;;
8312;SDS011;4194;43.408;24.626;2023-05-16T01:00:43;11.73;;;5.53;;
8312;SDS011;4194;43.408;24.626;2023-05-16T01:03:11;9.70;;;5.77;;
8312;SDS011;4194;43.408;24.626;2023-05-16T01:05:37;8.47;;;5.60;;
8312;SDS011;4194;43.408;24.626;2023-05-16T01:08:03;10.60;;;5.53;;
8312;SDS011;4194;43.408;24.626;2023-05-16T01:19:38;10.27;;;5.30;;
8312;SDS011;4194;43.408;24.626;2023-05-16T01:22:10;9.27;;;5.80;;
8312;SDS011;4194;43.408;24.626;2023-05-16T01:27:40;11.27;;;5.87;;
8312;SDS011;4194;43.408;24.626;2023-05-16T01:30:12;12.87;;;5.50;;
8312;SDS011;4194;43.408;24.626;2023-05-16T01:32:39;10.10;;;5.07;;
8312;SDS011;4194;43.408;24.626;2023-05-16T01:35:05;7.97;;;5.03;;
8312;SDS011;4194;43.408;24.626;2023-05-16T01:37:41;6.87;;;5.40;;
8312;SDS011;4194;43.408;24.626;2023-05-16T01:40:16;10.13;;;4.60;;
8312;SDS011;4194;43.408;24.626;2023-05-16T01:42:49;6.77;;;4.83;;
8312;SDS011;4194;43.408;24.626;2023-05-16T01:50:56;12.63;;;6.07;;
8312;SDS011;4194;43.408;24.626;2023-05-16T01:53:25;11.70;;;5.63;;
8312;SDS011;4194;43.408;24.626;2023-05-16T01:55:55;10.97;;;5.47;;
8312;SDS011;4194;43.408;24.626;2023-05-16T01:58:22;9.43;;;5.83;;
8312;SDS011;4194;43.408;24.626;2023-05-16T02:00:51;9.27;;;4.90;;
8312;SDS011;4194;43.408;24.626;2023-05-16T02:03:17;6.83;;;5.23;;
8312;SDS011;4194;43.408;24.626;2023-05-16T02:05:43;8.60;;;5.80;;
8312;SDS011;4194;43.408;24.626;2023-05-16T02:08:09;11.00;;;5.43;;
8312;SDS011;4194;43.408;24.626;2023-05-16T02:10:35;6.50;;;5.40;;
8312;SDS011;4194;43.408;24.626;2023-05-16T02:13:00;7.07;;;5.47;;
8312;SDS011;4194;43.408;24.626;2023-05-16T02:15:26;12.33;;;5.37;;
8312;SDS011;4194;43.408;24.626;2023-05-16T02:17:52;8.37;;;5.70;;
8312;SDS011;4194;43.408;24.626;2023-05-16T02:20:18;8.73;;;5.23;;
8312;SDS011;4194;43.408;24.626;2023-05-16T02:22:44;8.37;;;5.27;;
8312;SDS011;4194;43.408;24.626;2023-05-16T02:25:12;9.13;;;4.67;;
8312;SDS011;4194;43.408;24.626;2023-05-16T02:27:39;8.97;;;5.23;;
8312;SDS011;4194;43.408;24.626;2023-05-16T02:30:05;8.90;;;5.90;;
8312;SDS011;4194;43.408;24.626;2023-05-16T02:32:31;8.20;;;5.60;;
8312;SDS011;4194;43.408;24.626;2023-05-16T02:34:57;11.73;;;6.50;;
8312;SDS011;4194;43.408;24.626;2023-05-16T02:37:23;9.73;;;6.40;;
8312;SDS011;4194;43.408;24.626;2023-05-16T02:39:49;7.53;;;5.50;;
8312;SDS011;4194;43.408;24.626;2023-05-16T02:42:15;6.40;;;5.70;;
8312;SDS011;4194;43.408;24.626;2023-05-16T02:44:40;9.87;;;5.63;;
8312;SDS011;4194;43.408;24.626;2023-05-16T02:47:06;8.20;;;5.53;;
8312;SDS011;4194;43.408;24.626;2023-05-16T02:49:32;11.97;;;5.80;;
8312;SDS011;4194;43.408;24.626;2023-05-16T02:51:58;11.10;;;6.37;;
8312;SDS011;4194;43.408;24.626;2023-05-16T02:54:24;10.37;;;6.73;;
8312;SDS011;4194;43.408;24.626;2023-05-16T02:56:49;6.53;;;5.17;;
8312;SDS011;4194;43.408;24.626;2023-05-16T02:59:15;10.20;;;6.40;;
8312;SDS011;4194;43.408;24.626;2023-05-16T03:01:40;6.17;;;5.47;;
8312;SDS011;4194;43.408;24.626;2023-05-16T03:04:06;9.47;;;6.17;;
8312;SDS011;4194;43.408;24.626;2023-05-16T03:06:32;10.77;;;5.90;;
8312;SDS011;4194;43.408;24.626;2023-05-16T03:08:57;12.57;;;6.43;;
8312;SDS011;4194;43.408;24.626;2023-05-16T03:11:23;9.80;;;5.97;;
8312;SDS011;4194;43.408;24.626;2023-05-16T03:13:50;10.67;;;6.37;;
8312;SDS011;4194;43.408;24.626;2023-05-16T03:16:16;9.80;;;6.83;;
8312;SDS011;4194;43.408;24.626;2023-05-16T03:18:42;7.10;;;5.70;;
8312;SDS011;4194;43.408;24.626;2023-05-16T03:21:08;8.57;;;5.87;;
8312;SDS011;4194;43.408;24.626;2023-05-16T03:23:33;8.83;;;6.03;;
8312;SDS011;4194;43.408;24.626;2023-05-16T03:25:59;10.73;;;5.77;;
8312;SDS011;4194;43.408;24.626;2023-05-16T03:28:25;10.07;;;6.00;;
8312;SDS011;4194;43.408;24.626;2023-05-16T03:30:51;10.00;;;5.67;;
8312;SDS011;4194;43.408;24.626;2023-05-16T03:33:17;14.20;;;6.80;;
8312;SDS011;4194;43.408;24.626;2023-05-16T03:35:43;11.40;;;6.70;;
8312;SDS011;4194;43.408;24.626;2023-05-16T03:38:09;9.20;;;6.33;;
8312;SDS011;4194;43.408;24.626;2023-05-16T03:40:35;9.73;;;6.33;;
8312;SDS011;4194;43.408;24.626;2023-05-16T03:43:01;12.57;;;6.53;;
8312;SDS011;4194;43.408;24.626;2023-05-16T03:45:28;10.00;;;6.63;;
8312;SDS011;4194;43.408;24.626;2023-05-16T03:47:54;12.07;;;6.77;;
8312;SDS011;4194;43.408;24.626;2023-05-16T03:50:20;7.77;;;6.40;;
8312;SDS011;4194;43.408;24.626;2023-05-16T03:52:46;12.80;;;7.17;;
8312;SDS011;4194;43.408;24.626;2023-05-16T03:55:12;14.03;;;7.53;;
8312;SDS011;4194;43.408;24.626;2023-05-16T03:57:39;11.00;;;6.93;;
8312;SDS011;4194;43.408;24.626;2023-05-16T04:00:06;10.53;;;6.73;;
8312;SDS011;4194;43.408;24.626;2023-05-16T04:02:33;11.83;;;7.77;;
8312;SDS011;4194;43.408;24.626;2023-05-16T04:04:59;15.80;;;7.77;;
8312;SDS011;4194;43.408;24.626;2023-05-16T04:07:24;11.47;;;7.30;;
8312;SDS011;4194;43.408;24.626;2023-05-16T04:09:53;8.50;;;7.03;;
8312;SDS011;4194;43.408;24.626;2023-05-16T04:12:19;14.93;;;7.10;;
8312;SDS011;4194;43.408;24.626;2023-05-16T04:14:45;11.13;;;6.87;;
8312;SDS011;4194;43.408;24.626;2023-05-16T04:17:11;10.23;;;7.23;;
8312;SDS011;4194;43.408;24.626;2023-05-16T04:19:37;10.07;;;6.73;;
8312;SDS011;4194;43.408;24.626;2023-05-16T04:22:03;12.20;;;7.40;;
8312;SDS011;4194;43.408;24.626;2023-05-16T04:24:28;13.00;;;6.77;;
8312;SDS011;4194;43.408;24.626;2023-05-16T04:26:54;18.23;;;7.40;;
8312;SDS011;4194;43.408;24.626;2023-05-16T04:29:20;17.40;;;6.60;;
8312;SDS011;4194;43.408;24.626;2023-05-16T04:31:46;11.70;;;6.87;;
8312;SDS011;4194;43.408;24.626;2023-05-16T04:34:12;14.50;;;6.77;;
8312;SDS011;4194;43.408;24.626;2023-05-16T04:36:37;10.13;;;6.97;;
8312;SDS011;4194;43.408;24.626;2023-05-16T04:39:04;11.83;;;7.90;;
8312;SDS011;4194;43.408;24.626;2023-05-16T04:41:30;21.07;;;7.87;;
8312;SDS011;4194;43.408;24.626;2023-05-16T04:43:57;11.23;;;7.30;;
8312;SDS011;4194;43.408;24.626;2023-05-16T04:46:25;13.77;;;7.50;;
8312;SDS011;4194;43.408;24.626;2023-05-16T04:48:50;11.57;;;7.40;;
8312;SDS011;4194;43.408;24.626;2023-05-16T04:51:16;17.60;;;7.40;;
8312;SDS011;4194;43.408;24.626;2023-05-16T04:53:42;15.50;;;7.87;;
8312;SDS011;4194;43.408;24.626;2023-05-16T04:56:08;19.20;;;8.53;;
8312;SDS011;4194;43.408;24.626;2023-05-16T04:58:33;8.97;;;7.27;;
8312;SDS011;4194;43.408;24.626;2023-05-16T05:00:59;18.10;;;7.77;;
8312;SDS011;4194;43.408;24.626;2023-05-16T05:03:25;20.90;;;7.63;;
8312;SDS011;4194;43.408;24.626;2023-05-16T05:05:51;14.87;;;7.73;;
8312;SDS011;4194;43.408;24.626;2023-05-16T05:08:17;11.80;;;7.73;;
8312;SDS011;4194;43.408;24.626;2023-05-16T05:10:43;15.87;;;7.50;;
8312;SDS011;4194;43.408;24.626;2023-05-16T05:13:09;14.27;;;7.63;;
8312;SDS011;4194;43.408;24.626;2023-05-16T05:15:35;12.37;;;7.27;;
8312;SDS011;4194;43.408;24.626;2023-05-16T05:18:01;11.37;;;7.63;;
8312;SDS011;4194;43.408;24.626;2023-05-16T05:20:26;12.30;;;7.13;;
8312;SDS011;4194;43.408;24.626;2023-05-16T05:22:52;15.67;;;8.20;;
8312;SDS011;4194;43.408;24.626;2023-05-16T05:25:18;13.27;;;8.27;;
8312;SDS011;4194;43.408;24.626;2023-05-16T05:27:44;16.73;;;8.53;;
8312;SDS011;4194;43.408;24.626;2023-05-16T05:30:09;17.97;;;8.17;;
8312;SDS011;4194;43.408;24.626;2023-05-16T05:32:36;17.40;;;8.73;;
8312;SDS011;4194;43.408;24.626;2023-05-16T05:35:01;15.93;;;8.70;;
8312;SDS011;4194;43.408;24.626;2023-05-16T05:37:28;11.40;;;8.53;;
8312;SDS011;4194;43.408;24.626;2023-05-16T05:39:54;12.73;;;8.37;;
8312;SDS011;4194;43.408;24.626;2023-05-16T05:42:20;11.70;;;9.00;;
8312;SDS011;4194;43.408;24.626;2023-05-16T05:44:46;14.50;;;10.10;;
8312;SDS011;4194;43.408;24.626;2023-05-16T05:47:11;18.97;;;9.20;;
8312;SDS011;4194;43.408;24.626;2023-05-16T05:49:38;13.40;;;8.97;;
8312;SDS011;4194;43.408;24.626;2023-05-16T05:52:04;16.50;;;9.90;;
8312;SDS011;4194;43.408;24.626;2023-05-16T05:54:30;15.23;;;8.47;;
8312;SDS011;4194;43.408;24.626;2023-05-16T05:56:56;17.37;;;9.13;;
8312;SDS011;4194;43.408;24.626;2023-05-16T05:59:22;18.70;;;8.50;;
8312;SDS011;4194;43.408;24.626;2023-05-16T06:01:48;19.97;;;10.07;;
8312;SDS011;4194;43.408;24.626;2023-05-16T06:04:17;19.77;;;9.67;;
8312;SDS011;4194;43.408;24.626;2023-05-16T06:06:43;16.13;;;10.40;;
8312;SDS011;4194;43.408;24.626;2023-05-16T06:09:09;17.10;;;9.50;;
8312;SDS011;4194;43.408;24.626;2023-05-16T06:11:34;15.30;;;9.93;;
8312;SDS011;4194;43.408;24.626;2023-05-16T06:14:00;15.77;;;9.80;;
8312;SDS011;4194;43.408;24.626;2023-05-16T06:16:26;13.80;;;8.80;;
8312;SDS011;4194;43.408;24.626;2023-05-16T06:18:52;13.90;;;9.00;;
8312;SDS011;4194;43.408;24.626;2023-05-16T06:21:17;12.67;;;7.63;;
8312;SDS011;4194;43.408;24.626;2023-05-16T06:23:43;10.77;;;8.40;;
8312;SDS011;4194;43.408;24.626;2023-05-16T06:26:09;10.13;;;8.23;;
8312;SDS011;4194;43.408;24.626;2023-05-16T06:28:35;14.57;;;10.13;;
8312;SDS011;4194;43.408;24.626;2023-05-16T06:31:01;17.20;;;8.40;;
8312;SDS011;4194;43.408;24.626;2023-05-16T06:33:26;7.50;;;6.17;;
8312;SDS011;4194;43.408;24.626;2023-05-16T06:35:52;8.47;;;6.50;;
8312;SDS011;4194;43.408;24.626;2023-05-16T06:38:18;8.77;;;5.40;;
8312;SDS011;4194;43.408;24.626;2023-05-16T06:40:44;14.27;;;7.63;;
8312;SDS011;4194;43.408;24.626;2023-05-16T06:43:10;9.93;;;6.60;;
8312;SDS011;4194;43.408;24.626;2023-05-16T06:45:38;8.97;;;5.80;;
8312;SDS011;4194;43.408;24.626;2023-05-16T06:48:05;7.97;;;5.73;;
8312;SDS011;4194;43.408;24.626;2023-05-16T06:50:31;9.67;;;6.30;;
8312;SDS011;4194;43.408;24.626;2023-05-16T06:52:59;14.07;;;5.97;;
8312;SDS011;4194;43.408;24.626;2023-05-16T06:55:25;9.73;;;6.17;;
8312;SDS011;4194;43.408;24.626;2023-05-16T06:57:51;7.23;;;5.57;;
8312;SDS011;4194;43.408;24.626;2023-05-16T07:00:16;8.23;;;5.90;;
8312;SDS011;4194;43.408;24.626;2023-05-16T07:02:42;7.03;;;5.50;;
8312;SDS011;4194;43.408;24.626;2023-05-16T07:05:08;6.73;;;5.50;;
8312;SDS011;4194;43.408;24.626;2023-05-16T07:07:34;9.27;;;5.90;;
8312;SDS011;4194;43.408;24.626;2023-05-16T07:10:00;8.17;;;5.87;;
8312;SDS011;4194;43.408;24.626;2023-05-16T07:12:27;9.20;;;5.67;;
8312;SDS011;4194;43.408;24.626;2023-05-16T07:14:53;7.50;;;6.47;;
8312;SDS011;4194;43.408;24.626;2023-05-16T07:17:18;11.03;;;6.63;;
8312;SDS011;4194;43.408;24.626;2023-05-16T07:19:44;8.30;;;5.90;;
8312;SDS011;4194;43.408;24.626;2023-05-16T07:22:10;7.77;;;6.30;;
8312;SDS011;4194;43.408;24.626;2023-05-16T07:24:36;7.57;;;5.77;;
8312;SDS011;4194;43.408;24.626;2023-05-16T07:27:02;11.47;;;6.10;;
8312;SDS011;4194;43.408;24.626;2023-05-16T07:29:27;13.77;;;6.77;;
8312;SDS011;4194;43.408;24.626;2023-05-16T07:31:54;13.77;;;7.40;;
8312;SDS011;4194;43.408;24.626;2023-05-16T07:34:20;10.83;;;6.47;;
8312;SDS011;4194;43.408;24.626;2023-05-16T07:36:51;9.93;;;6.53;;
8312;SDS011;4194;43.408;24.626;2023-05-16T07:39:17;11.37;;;6.80;;
8312;SDS011;4194;43.408;24.626;2023-05-16T07:41:43;15.33;;;6.97;;
8312;SDS011;4194;43.408;24.626;2023-05-16T07:44:08;9.33;;;7.00;;
8312;SDS011;4194;43.408;24.626;2023-05-16T07:46:34;10.03;;;7.50;;
8312;SDS011;4194;43.408;24.626;2023-05-16T07:49:00;11.87;;;7.50;;
8312;SDS011;4194;43.408;24.626;2023-05-16T07:51:26;9.37;;;7.33;;
8312;SDS011;4194;43.408;24.626;2023-05-16T07:53:52;13.93;;;7.17;;
8312;SDS011;4194;43.408;24.626;2023-05-16T07:56:18;23.43;;;13.40;;
8312;SDS011;4194;43.408;24.626;2023-05-16T07:58:44;12.47;;;7.40;;
8312;SDS011;4194;43.408;24.626;2023-05-16T08:01:10;12.63;;;6.80;;
8312;SDS011;4194;43.408;24.626;2023-05-16T08:03:36;9.70;;;6.70;;
8312;SDS011;4194;43.408;24.626;2023-05-16T08:06:01;17.43;;;7.23;;
8312;SDS011;4194;43.408;24.626;2023-05-16T08:08:27;16.87;;;7.73;;
8312;SDS011;4194;43.408;24.626;2023-05-16T08:10:53;12.60;;;7.50;;
8312;SDS011;4194;43.408;24.626;2023-05-16T08:13:18;9.33;;;7.27;;
8312;SDS011;4194;43.408;24.626;2023-05-16T08:15:44;10.57;;;7.67;;
8312;SDS011;4194;43.408;24.626;2023-05-16T08:18:14;18.13;;;8.37;;
8312;SDS011;4194;43.408;24.626;2023-05-16T08:20:40;13.93;;;8.47;;
8312;SDS011;4194;43.408;24.626;2023-05-16T08:23:06;14.83;;;8.57;;
8312;SDS011;4194;43.408;24.626;2023-05-16T08:25:33;10.80;;;8.13;;
8312;SDS011;4194;43.408;24.626;2023-05-16T08:27:58;12.30;;;7.90;;
8312;SDS011;4194;43.408;24.626;2023-05-16T08:30:26;9.00;;;7.07;;
8312;SDS011;4194;43.408;24.626;2023-05-16T08:32:52;14.50;;;7.20;;
8312;SDS011;4194;43.408;24.626;2023-05-16T08:35:18;12.33;;;6.50;;
8312;SDS011;4194;43.408;24.626;2023-05-16T08:37:47;11.33;;;6.97;;
8312;SDS011;4194;43.408;24.626;2023-05-16T08:40:12;13.80;;;7.13;;
8312;SDS011;4194;43.408;24.626;2023-05-16T08:42:39;10.57;;;6.70;;
8312;SDS011;4194;43.408;24.626;2023-05-16T08:45:05;10.50;;;7.00;;
8312;SDS011;4194;43.408;24.626;2023-05-16T08:47:32;11.63;;;6.83;;
8312;SDS011;4194;43.408;24.626;2023-05-16T08:50:01;12.27;;;7.13;;
8312;SDS011;4194;43.408;24.626;2023-05-16T08:52:29;9.37;;;6.90;;
8312;SDS011;4194;43.408;24.626;2023-05-16T08:54:58;11.13;;;7.13;;
8312;SDS011;4194;43.408;24.626;2023-05-16T08:57:29;11.47;;;8.07;;
8312;SDS011;4194;43.408;24.626;2023-05-16T08:59:57;16.93;;;7.87;;
8312;SDS011;4194;43.408;24.626;2023-05-16T09:02:24;15.47;;;7.83;;
8312;SDS011;4194;43.408;24.626;2023-05-16T09:04:50;11.47;;;8.90;;
8312;SDS011;4194;43.408;24.626;2023-05-16T09:07:18;14.47;;;7.80;;
8312;SDS011;4194;43.408;24.626;2023-05-16T09:09:43;11.33;;;7.93;;
8312;SDS011;4194;43.408;24.626;2023-05-16T09:12:09;16.60;;;9.03;;
8312;SDS011;4194;43.408;24.626;2023-05-16T09:14:36;13.23;;;7.77;;
8312;SDS011;4194;43.408;24.626;2023-05-16T09:17:03;14.13;;;8.03;;
8312;SDS011;4194;43.408;24.626;2023-05-16T09:19:39;10.93;;;7.87;;
8312;SDS011;4194;43.408;24.626;2023-05-16T09:22:10;12.40;;;7.07;;
8312;SDS011;4194;43.408;24.626;2023-05-16T09:24:41;11.17;;;7.07;;
8312;SDS011;4194;43.408;24.626;2023-05-16T09:27:08;13.50;;;8.07;;
8312;SDS011;4194;43.408;24.626;2023-05-16T09:29:35;9.37;;;6.27;;
8312;SDS011;4194;43.408;24.626;2023-05-16T09:32:14;10.90;;;6.20;;
8312;SDS011;4194;43.408;24.626;2023-05-16T09:34:44;10.80;;;6.50;;
8312;SDS011;4194;43.408;24.626;2023-05-16T09:37:13;14.43;;;8.93;;
8312;SDS011;4194;43.408;24.626;2023-05-16T09:39:40;14.50;;;8.80;;
8312;SDS011;4194;43.408;24.626;2023-05-16T09:42:19;13.57;;;8.47;;
8312;SDS011;4194;43.408;24.626;2023-05-16T09:44:45;15.50;;;9.17;;
8312;SDS011;4194;43.408;24.626;2023-05-16T09:47:18;13.27;;;9.57;;
8312;SDS011;4194;43.408;24.626;2023-05-16T09:49:45;14.80;;;8.90;;
8312;SDS011;4194;43.408;24.626;2023-05-16T09:52:12;10.67;;;7.93;;
8312;SDS011;4194;43.408;24.626;2023-05-16T09:54:38;15.17;;;8.93;;
8312;SDS011;4194;43.408;24.626;2023-05-16T09:57:04;14.60;;;8.43;;
8312;SDS011;4194;43.408;24.626;2023-05-16T09:59:31;12.60;;;8.43;;
8312;SDS011;4194;43.408;24.626;2023-05-16T10:02:00;12.07;;;7.57;;
8312;SDS011;4194;43.408;24.626;2023-05-16T10:04:27;12.97;;;8.10;;
8312;SDS011;4194;43.408;24.626;2023-05-16T10:06:54;13.47;;;8.03;;
8312;SDS011;4194;43.408;24.626;2023-05-16T10:09:23;13.17;;;8.00;;
8312;SDS011;4194;43.408;24.626;2023-05-16T10:11:50;14.53;;;8.23;;
8312;SDS011;4194;43.408;24.626;2023-05-16T10:14:17;13.73;;;8.23;;
8312;SDS011;4194;43.408;24.626;2023-05-16T10:16:45;12.97;;;8.73;;
8312;SDS011;4194;43.408;24.626;2023-05-16T10:19:13;16.60;;;8.90;;
8312;SDS011;4194;43.408;24.626;2023-05-16T10:21:41;12.23;;;9.40;;
8312;SDS011;4194;43.408;24.626;2023-05-16T10:24:12;16.07;;;9.50;;
8312;SDS011;4194;43.408;24.626;2023-05-16T10:26:45;16.07;;;9.37;;
8312;SDS011;4194;43.408;24.626;2023-05-16T10:29:11;18.07;;;10.13;;
8312;SDS011;4194;43.408;24.626;2023-05-16T10:31:37;16.43;;;10.13;;
8312;SDS011;4194;43.408;24.626;2023-05-16T10:34:03;13.47;;;9.83;;
8312;SDS011;4194;43.408;24.626;2023-05-16T10:36:29;14.27;;;9.57;;
8312;SDS011;4194;43.408;24.626;2023-05-16T10:38:55;16.77;;;9.63;;
8312;SDS011;4194;43.408;24.626;2023-05-16T10:41:22;18.90;;;10.70;;
8312;SDS011;4194;43.408;24.626;2023-05-16T10:43:57;22.47;;;10.17;;
8312;SDS011;4194;43.408;24.626;2023-05-16T10:46:23;19.70;;;10.67;;
8312;SDS011;4194;43.408;24.626;2023-05-16T10:48:51;20.80;;;11.03;;
8312;SDS011;4194;43.408;24.626;2023-05-16T10:51:35;17.37;;;10.27;;
8312;SDS011;4194;43.408;24.626;2023-05-16T10:54:09;11.83;;;10.50;;
8312;SDS011;4194;43.408;24.626;2023-05-16T10:56:39;16.70;;;10.40;;
8312;SDS011;4194;43.408;24.626;2023-05-16T10:59:26;18.10;;;10.87;;
8312;SDS011;4194;43.408;24.626;2023-05-16T11:01:53;17.80;;;10.53;;
8312;SDS011;4194;43.408;24.626;2023-05-16T11:04:19;16.53;;;10.43;;
8312;SDS011;4194;43.408;24.626;2023-05-16T11:06:48;14.63;;;9.70;;
8312;SDS011;4194;43.408;24.626;2023-05-16T11:11:45;19.17;;;10.07;;
8312;SDS011;4194;43.408;24.626;2023-05-16T11:14:23;14.63;;;9.90;;
8312;SDS011;4194;43.408;24.626;2023-05-16T11:19:30;18.67;;;10.27;;
8312;SDS011;4194;43.408;24.626;2023-05-16T11:22:06;16.70;;;11.17;;
8312;SDS011;4194;43.408;24.626;2023-05-16T11:24:33;18.20;;;12.00;;
8312;SDS011;4194;43.408;24.626;2023-05-16T11:27:03;17.77;;;11.47;;
8312;SDS011;4194;43.408;24.626;2023-05-16T11:29:30;14.33;;;12.47;;
8312;SDS011;4194;43.408;24.626;2023-05-16T11:32:02;17.33;;;11.70;;
8312;SDS011;4194;43.408;24.626;2023-05-16T11:34:28;20.97;;;12.57;;
8312;SDS011;4194;43.408;24.626;2023-05-16T11:36:55;15.93;;;12.63;;
8312;SDS011;4194;43.408;24.626;2023-05-16T11:39:21;21.37;;;13.07;;
8312;SDS011;4194;43.408;24.626;2023-05-16T11:41:50;14.73;;;11.47;;
8312;SDS011;4194;43.408;24.626;2023-05-16T11:44:18;21.00;;;12.90;;
8312;SDS011;4194;43.408;24.626;2023-05-16T11:46:43;21.23;;;12.60;;
8312;SDS011;4194;43.408;24.626;2023-05-16T11:49:10;20.10;;;11.87;;
8312;SDS011;4194;43.408;24.626;2023-05-16T11:51:39;17.47;;;12.37;;
8312;SDS011;4194;43.408;24.626;2023-05-16T11:54:10;23.20;;;12.50;;
8312;SDS011;4194;43.408;24.626;2023-05-16T11:56:37;20.03;;;12.47;;
8312;SDS011;4194;43.408;24.626;2023-05-16T11:59:04;16.80;;;12.00;;
8312;SDS011;4194;43.408;24.626;2023-05-16T12:01:35;19.43;;;12.20;;
8312;SDS011;4194;43.408;24.626;2023-05-16T12:04:01;17.53;;;12.60;;
8312;SDS011;4194;43.408;24.626;2023-05-16T12:06:34;19.27;;;13.37;;
8312;SDS011;4194;43.408;24.626;2023-05-16T12:09:00;19.83;;;13.40;;
8312;SDS011;4194;43.408;24.626;2023-05-16T12:11:35;18.43;;;13.43;;
8312;SDS011;4194;43.408;24.626;2023-05-16T12:14:03;20.30;;;13.50;;
8312;SDS011;4194;43.408;24.626;2023-05-16T12:16:29;18.73;;;13.83;;
8312;SDS011;4194;43.408;24.626;2023-05-16T12:18:56;18.93;;;12.40;;
8312;SDS011;4194;43.408;24.626;2023-05-16T12:21:21;18.83;;;13.70;;
8312;SDS011;4194;43.408;24.626;2023-05-16T12:23:47;17.90;;;14.10;;
8312;SDS011;4194;43.408;24.626;2023-05-16T12:26:13;20.73;;;13.83;;
8312;SDS011;4194;43.408;24.626;2023-05-16T12:28:38;18.23;;;13.80;;
8312;SDS011;4194;43.408;24.626;2023-05-16T12:31:17;18.57;;;14.03;;
8312;SDS011;4194;43.408;24.626;2023-05-16T12:33:44;16.83;;;14.13;;
8312;SDS011;4194;43.408;24.626;2023-05-16T12:36:14;19.17;;;13.90;;
8312;SDS011;4194;43.408;24.626;2023-05-16T12:38:41;16.77;;;13.17;;
8312;SDS011;4194;43.408;24.626;2023-05-16T12:41:10;17.73;;;13.00;;
8312;SDS011;4194;43.408;24.626;2023-05-16T12:43:41;20.00;;;12.73;;
8312;SDS011;4194;43.408;24.626;2023-05-16T12:46:08;14.63;;;11.07;;
8312;SDS011;4194;43.408;24.626;2023-05-16T12:48:36;17.73;;;11.40;;
8312;SDS011;4194;43.408;24.626;2023-05-16T12:51:13;17.23;;;11.50;;
8312;SDS011;4194;43.408;24.626;2023-05-16T12:53:45;18.30;;;11.10;;
8312;SDS011;4194;43.408;24.626;2023-05-16T12:56:12;16.93;;;10.60;;
8312;SDS011;4194;43.408;24.626;2023-05-16T12:58:39;18.50;;;10.10;;
8312;SDS011;4194;43.408;24.626;2023-05-16T13:01:06;13.67;;;9.80;;
8312;SDS011;4194;43.408;24.626;2023-05-16T13:03:32;12.57;;;9.93;;
8312;SDS011;4194;43.408;24.626;2023-05-16T13:05:58;16.70;;;11.17;;
8312;SDS011;4194;43.408;24.626;2023-05-16T13:08:27;14.00;;;10.90;;
8312;SDS011;4194;43.408;24.626;2023-05-16T13:10:53;16.77;;;11.00;;
8312;SDS011;4194;43.408;24.626;2023-05-16T13:13:19;13.60;;;11.37;;
8312;SDS011;4194;43.408;24.626;2023-05-16T13:15:45;15.00;;;11.97;;
8312;SDS011;4194;43.408;24.626;2023-05-16T13:18:12;18.10;;;12.00;;
8312;SDS011;4194;43.408;24.626;2023-05-16T13:20:38;21.73;;;12.30;;
8312;SDS011;4194;43.408;24.626;2023-05-16T13:23:04;13.47;;;11.23;;
8312;SDS011;4194;43.408;24.626;2023-05-16T13:25:30;14.90;;;10.83;;
8312;SDS011;4194;43.408;24.626;2023-05-16T13:27:56;15.93;;;10.27;;
8312;SDS011;4194;43.408;24.626;2023-05-16T13:30:21;11.57;;;10.47;;
8312;SDS011;4194;43.408;24.626;2023-05-16T13:32:48;13.43;;;10.33;;
8312;SDS011;4194;43.408;24.626;2023-05-16T13:35:15;12.07;;;10.33;;
8312;SDS011;4194;43.408;24.626;2023-05-16T13:37:40;12.17;;;10.70;;
8312;SDS011;4194;43.408;24.626;2023-05-16T13:40:06;16.57;;;10.57;;
8312;SDS011;4194;43.408;24.626;2023-05-16T13:42:38;17.67;;;10.90;;
8312;SDS011;4194;43.408;24.626;2023-05-16T13:45:04;15.17;;;11.10;;
8312;SDS011;4194;43.408;24.626;2023-05-16T13:47:30;17.13;;;11.27;;
8312;SDS011;4194;43.408;24.626;2023-05-16T13:49:59;14.27;;;11.57;;
8312;SDS011;4194;43.408;24.626;2023-05-16T13:52:30;19.40;;;11.10;;
8312;SDS011;4194;43.408;24.626;2023-05-16T13:54:56;15.33;;;12.00;;
8312;SDS011;4194;43.408;24.626;2023-05-16T13:57:21;17.93;;;11.67;;
8312;SDS011;4194;43.408;24.626;2023-05-16T13:59:48;18.03;;;11.97;;
8312;SDS011;4194;43.408;24.626;2023-05-16T14:02:13;16.50;;;11.43;;
8312;SDS011;4194;43.408;24.626;2023-05-16T14:04:39;22.87;;;13.43;;
8312;SDS011;4194;43.408;24.626;2023-05-16T14:07:05;17.37;;;10.77;;
8312;SDS011;4194;43.408;24.626;2023-05-16T14:09:31;16.80;;;11.40;;
8312;SDS011;4194;43.408;24.626;2023-05-16T14:11:59;16.90;;;10.83;;
8312;SDS011;4194;43.408;24.626;2023-05-16T14:14:26;12.33;;;9.90;;
8312;SDS011;4194;43.408;24.626;2023-05-16T14:16:52;14.50;;;10.00;;
8312;SDS011;4194;43.408;24.626;2023-05-16T14:19:18;12.77;;;9.17;;
8312;SDS011;4194;43.408;24.626;2023-05-16T14:21:43;12.70;;;9.67;;
8312;SDS011;4194;43.408;24.626;2023-05-16T14:24:09;15.17;;;10.27;;
8312;SDS011;4194;43.408;24.626;2023-05-16T14:26:36;16.83;;;10.73;;
8312;SDS011;4194;43.408;24.626;2023-05-16T14:29:02;20.93;;;10.37;;
8312;SDS011;4194;43.408;24.626;2023-05-16T14:31:29;16.53;;;10.47;;
8312;SDS011;4194;43.408;24.626;2023-05-16T14:33:55;13.30;;;9.53;;
8312;SDS011;4194;43.408;24.626;2023-05-16T14:36:20;16.53;;;10.50;;
8312;SDS011;4194;43.408;24.626;2023-05-16T14:38:46;12.70;;;10.03;;
8312;SDS011;4194;43.408;24.626;2023-05-16T14:41:13;14.47;;;10.33;;
8312;SDS011;4194;43.408;24.626;2023-05-16T14:43:39;15.23;;;10.70;;
8312;SDS011;4194;43.408;24.626;2023-05-16T14:46:04;17.57;;;10.77;;
8312;SDS011;4194;43.408;24.626;2023-05-16T14:48:30;16.70;;;10.20;;
8312;SDS011;4194;43.408;24.626;2023-05-16T14:50:57;15.90;;;10.80;;
8312;SDS011;4194;43.408;24.626;2023-05-16T14:53:23;17.60;;;13.00;;
8312;SDS011;4194;43.408;24.626;2023-05-16T14:55:48;13.47;;;11.73;;
8312;SDS011;4194;43.408;24.626;2023-05-16T14:58:14;17.77;;;11.47;;
8312;SDS011;4194;43.408;24.626;2023-05-16T15:00:40;28.93;;;16.57;;
8312;SDS011;4194;43.408;24.626;2023-05-16T15:03:06;34.57;;;19.97;;
8312;SDS011;4194;43.408;24.626;2023-05-16T15:05:32;13.87;;;11.00;;
8312;SDS011;4194;43.408;24.626;2023-05-16T15:07:58;16.00;;;10.13;;